RJDO(METAR)
03/17 12:26
RJDO 170326Z 23010G20KT 9999 SCT030 15/09 Q1019 RMK A3010=
戻る
トップページへ戻る
IMOC Co,.Ltd.